sensor_id;sensor_type;location;lat;lon;timestamp;P1;durP1;ratioP1;P2;durP2;ratioP2
61104;SDS011;46987;32.638;-115.438;2023-04-21T00:00:49;8.77;;;2.40;;
61104;SDS011;46987;32.638;-115.438;2023-04-21T00:03:16;6.90;;;2.03;;
61104;SDS011;46987;32.638;-115.438;2023-04-21T00:05:45;7.03;;;2.53;;
61104;SDS011;46987;32.638;-115.438;2023-04-21T00:08:15;10.38;;;2.97;;
61104;SDS011;46987;32.638;-115.438;2023-04-21T00:10:42;12.20;;;2.92;;
61104;SDS011;46987;32.638;-115.438;2023-04-21T00:13:09;10.35;;;2.65;;
61104;SDS011;46987;32.638;-115.438;2023-04-21T00:15:35;12.00;;;2.40;;
61104;SDS011;46987;32.638;-115.438;2023-04-21T00:18:02;10.43;;;2.45;;
61104;SDS011;46987;32.638;-115.438;2023-04-21T00:20:29;10.38;;;2.67;;
61104;SDS011;46987;32.638;-115.438;2023-04-21T00:22:56;9.07;;;2.38;;
61104;SDS011;46987;32.638;-115.438;2023-04-21T00:25:25;10.80;;;3.05;;
61104;SDS011;46987;32.638;-115.438;2023-04-21T00:27:52;8.75;;;2.45;;
61104;SDS011;46987;32.638;-115.438;2023-04-21T00:30:18;13.73;;;3.13;;
61104;SDS011;46987;32.638;-115.438;2023-04-21T00:32:45;8.90;;;2.65;;
61104;SDS011;46987;32.638;-115.438;2023-04-21T00:35:12;10.32;;;2.33;;
61104;SDS011;46987;32.638;-115.438;2023-04-21T00:37:38;11.00;;;2.63;;
61104;SDS011;46987;32.638;-115.438;2023-04-21T00:40:07;10.52;;;2.60;;
61104;SDS011;46987;32.638;-115.438;2023-04-21T00:42:35;8.15;;;2.58;;
61104;SDS011;46987;32.638;-115.438;2023-04-21T00:45:02;10.50;;;2.75;;
61104;SDS011;46987;32.638;-115.438;2023-04-21T00:47:30;9.55;;;2.83;;
61104;SDS011;46987;32.638;-115.438;2023-04-21T00:49:56;9.18;;;2.67;;
61104;SDS011;46987;32.638;-115.438;2023-04-21T00:52:23;9.00;;;2.40;;
61104;SDS011;46987;32.638;-115.438;2023-04-21T00:54:50;10.18;;;3.17;;
61104;SDS011;46987;32.638;-115.438;2023-04-21T00:57:17;9.88;;;2.85;;
61104;SDS011;46987;32.638;-115.438;2023-04-21T00:59:45;9.32;;;2.47;;
61104;SDS011;46987;32.638;-115.438;2023-04-21T01:02:13;12.93;;;3.72;;
61104;SDS011;46987;32.638;-115.438;2023-04-21T01:04:40;14.18;;;2.70;;
61104;SDS011;46987;32.638;-115.438;2023-04-21T01:07:07;9.32;;;2.50;;
61104;SDS011;46987;32.638;-115.438;2023-04-21T01:09:35;13.30;;;3.03;;
61104;SDS011;46987;32.638;-115.438;2023-04-21T01:12:04;10.98;;;3.03;;
61104;SDS011;46987;32.638;-115.438;2023-04-21T01:14:33;8.63;;;2.97;;
61104;SDS011;46987;32.638;-115.438;2023-04-21T01:17:01;9.45;;;2.67;;
61104;SDS011;46987;32.638;-115.438;2023-04-21T01:19:33;10.63;;;3.10;;
61104;SDS011;46987;32.638;-115.438;2023-04-21T01:22:02;9.40;;;3.08;;
61104;SDS011;46987;32.638;-115.438;2023-04-21T01:24:36;10.10;;;2.58;;
61104;SDS011;46987;32.638;-115.438;2023-04-21T01:27:04;10.25;;;2.50;;
61104;SDS011;46987;32.638;-115.438;2023-04-21T01:29:33;11.70;;;2.28;;
61104;SDS011;46987;32.638;-115.438;2023-04-21T01:32:03;14.23;;;3.47;;
61104;SDS011;46987;32.638;-115.438;2023-04-21T01:34:30;10.95;;;3.00;;
61104;SDS011;46987;32.638;-115.438;2023-04-21T01:36:56;12.00;;;3.78;;
61104;SDS011;46987;32.638;-115.438;2023-04-21T01:39:27;11.35;;;3.17;;
61104;SDS011;46987;32.638;-115.438;2023-04-21T01:41:54;12.05;;;2.78;;
61104;SDS011;46987;32.638;-115.438;2023-04-21T01:44:23;11.15;;;3.28;;
61104;SDS011;46987;32.638;-115.438;2023-04-21T01:46:50;15.25;;;2.90;;
61104;SDS011;46987;32.638;-115.438;2023-04-21T01:49:17;10.45;;;3.53;;
61104;SDS011;46987;32.638;-115.438;2023-04-21T01:51:44;10.00;;;2.70;;
61104;SDS011;46987;32.638;-115.438;2023-04-21T01:54:10;10.43;;;3.08;;
61104;SDS011;46987;32.638;-115.438;2023-04-21T01:56:40;10.18;;;3.20;;
61104;SDS011;46987;32.638;-115.438;2023-04-21T01:59:07;9.15;;;3.10;;
61104;SDS011;46987;32.638;-115.438;2023-04-21T02:01:34;10.18;;;2.95;;
61104;SDS011;46987;32.638;-115.438;2023-04-21T02:04:02;12.02;;;3.47;;
61104;SDS011;46987;32.638;-115.438;2023-04-21T02:06:29;12.05;;;2.83;;
61104;SDS011;46987;32.638;-115.438;2023-04-21T02:08:59;9.65;;;3.22;;
61104;SDS011;46987;32.638;-115.438;2023-04-21T02:11:29;10.85;;;2.80;;
61104;SDS011;46987;32.638;-115.438;2023-04-21T02:13:58;13.27;;;3.35;;
61104;SDS011;46987;32.638;-115.438;2023-04-21T02:16:24;10.73;;;3.75;;
61104;SDS011;46987;32.638;-115.438;2023-04-21T02:18:51;10.75;;;3.38;;
61104;SDS011;46987;32.638;-115.438;2023-04-21T02:21:19;12.13;;;3.25;;
61104;SDS011;46987;32.638;-115.438;2023-04-21T02:23:48;12.60;;;4.15;;
61104;SDS011;46987;32.638;-115.438;2023-04-21T02:26:14;15.55;;;3.30;;
61104;SDS011;46987;32.638;-115.438;2023-04-21T02:28:41;13.10;;;3.72;;
61104;SDS011;46987;32.638;-115.438;2023-04-21T02:31:09;11.73;;;4.13;;
61104;SDS011;46987;32.638;-115.438;2023-04-21T02:33:36;14.40;;;4.22;;
61104;SDS011;46987;32.638;-115.438;2023-04-21T02:36:03;12.60;;;3.55;;
61104;SDS011;46987;32.638;-115.438;2023-04-21T02:38:30;18.23;;;3.63;;
61104;SDS011;46987;32.638;-115.438;2023-04-21T02:40:57;11.38;;;3.38;;
61104;SDS011;46987;32.638;-115.438;2023-04-21T02:43:23;15.38;;;3.95;;
61104;SDS011;46987;32.638;-115.438;2023-04-21T02:45:50;13.55;;;4.10;;
61104;SDS011;46987;32.638;-115.438;2023-04-21T02:48:19;15.30;;;4.00;;
61104;SDS011;46987;32.638;-115.438;2023-04-21T02:50:48;17.23;;;4.03;;
61104;SDS011;46987;32.638;-115.438;2023-04-21T02:53:15;14.50;;;3.83;;
61104;SDS011;46987;32.638;-115.438;2023-04-21T02:55:42;19.20;;;4.28;;
61104;SDS011;46987;32.638;-115.438;2023-04-21T02:58:09;15.60;;;4.10;;
61104;SDS011;46987;32.638;-115.438;2023-04-21T03:00:36;17.10;;;5.18;;
61104;SDS011;46987;32.638;-115.438;2023-04-21T03:03:04;18.20;;;4.43;;
61104;SDS011;46987;32.638;-115.438;2023-04-21T03:05:33;13.95;;;4.03;;
61104;SDS011;46987;32.638;-115.438;2023-04-21T03:08:00;19.80;;;5.28;;
61104;SDS011;46987;32.638;-115.438;2023-04-21T03:10:26;16.27;;;5.03;;
61104;SDS011;46987;32.638;-115.438;2023-04-21T03:12:54;18.77;;;5.22;;
61104;SDS011;46987;32.638;-115.438;2023-04-21T03:15:23;17.85;;;5.32;;
61104;SDS011;46987;32.638;-115.438;2023-04-21T03:17:49;13.63;;;5.22;;
61104;SDS011;46987;32.638;-115.438;2023-04-21T03:20:16;16.63;;;5.97;;
61104;SDS011;46987;32.638;-115.438;2023-04-21T03:22:44;19.40;;;5.22;;
61104;SDS011;46987;32.638;-115.438;2023-04-21T03:25:11;21.92;;;5.40;;
61104;SDS011;46987;32.638;-115.438;2023-04-21T03:27:38;21.30;;;5.30;;
61104;SDS011;46987;32.638;-115.438;2023-04-21T03:30:05;18.88;;;5.07;;
61104;SDS011;46987;32.638;-115.438;2023-04-21T03:32:32;18.10;;;5.90;;
61104;SDS011;46987;32.638;-115.438;2023-04-21T03:34:59;23.20;;;7.95;;
61104;SDS011;46987;32.638;-115.438;2023-04-21T03:37:25;25.75;;;8.43;;
61104;SDS011;46987;32.638;-115.438;2023-04-21T03:39:54;29.88;;;8.10;;
61104;SDS011;46987;32.638;-115.438;2023-04-21T03:42:20;22.60;;;6.40;;
61104;SDS011;46987;32.638;-115.438;2023-04-21T03:44:48;21.98;;;6.85;;
61104;SDS011;46987;32.638;-115.438;2023-04-21T03:47:15;21.23;;;5.80;;
61104;SDS011;46987;32.638;-115.438;2023-04-21T03:49:42;26.40;;;6.35;;
61104;SDS011;46987;32.638;-115.438;2023-04-21T03:52:09;28.15;;;6.50;;
61104;SDS011;46987;32.638;-115.438;2023-04-21T03:54:37;23.88;;;6.93;;
61104;SDS011;46987;32.638;-115.438;2023-04-21T03:57:05;29.77;;;6.90;;
61104;SDS011;46987;32.638;-115.438;2023-04-21T03:59:32;31.17;;;6.82;;
61104;SDS011;46987;32.638;-115.438;2023-04-21T04:01:59;32.03;;;6.90;;
61104;SDS011;46987;32.638;-115.438;2023-04-21T04:04:25;33.45;;;6.72;;
61104;SDS011;46987;32.638;-115.438;2023-04-21T04:06:52;26.08;;;8.02;;
61104;SDS011;46987;32.638;-115.438;2023-04-21T04:09:19;24.80;;;6.88;;
61104;SDS011;46987;32.638;-115.438;2023-04-21T04:11:45;30.27;;;7.60;;
61104;SDS011;46987;32.638;-115.438;2023-04-21T04:14:14;33.03;;;8.27;;
61104;SDS011;46987;32.638;-115.438;2023-04-21T04:16:40;32.85;;;8.93;;
61104;SDS011;46987;32.638;-115.438;2023-04-21T04:19:07;28.60;;;8.98;;
61104;SDS011;46987;32.638;-115.438;2023-04-21T04:21:34;28.00;;;8.63;;
61104;SDS011;46987;32.638;-115.438;2023-04-21T04:24:01;28.63;;;8.55;;
61104;SDS011;46987;32.638;-115.438;2023-04-21T04:26:28;35.03;;;9.38;;
61104;SDS011;46987;32.638;-115.438;2023-04-21T04:28:55;32.30;;;10.35;;
61104;SDS011;46987;32.638;-115.438;2023-04-21T04:31:23;33.72;;;10.02;;
61104;SDS011;46987;32.638;-115.438;2023-04-21T04:33:50;31.52;;;9.18;;
61104;SDS011;46987;32.638;-115.438;2023-04-21T04:36:16;30.55;;;11.23;;
61104;SDS011;46987;32.638;-115.438;2023-04-21T04:38:43;36.90;;;10.95;;
61104;SDS011;46987;32.638;-115.438;2023-04-21T04:41:10;34.67;;;12.00;;
61104;SDS011;46987;32.638;-115.438;2023-04-21T04:43:37;40.28;;;12.05;;
61104;SDS011;46987;32.638;-115.438;2023-04-21T04:46:04;36.15;;;12.45;;
61104;SDS011;46987;32.638;-115.438;2023-04-21T04:48:33;38.38;;;13.63;;
61104;SDS011;46987;32.638;-115.438;2023-04-21T04:50:59;34.17;;;13.32;;
61104;SDS011;46987;32.638;-115.438;2023-04-21T04:53:26;46.35;;;13.70;;
61104;SDS011;46987;32.638;-115.438;2023-04-21T04:55:53;35.83;;;12.35;;
61104;SDS011;46987;32.638;-115.438;2023-04-21T04:58:22;41.85;;;13.38;;
61104;SDS011;46987;32.638;-115.438;2023-04-21T05:00:48;48.17;;;12.48;;
61104;SDS011;46987;32.638;-115.438;2023-04-21T05:03:15;40.28;;;12.73;;
61104;SDS011;46987;32.638;-115.438;2023-04-21T05:05:44;36.20;;;12.55;;
61104;SDS011;46987;32.638;-115.438;2023-04-21T05:08:11;35.20;;;11.82;;
61104;SDS011;46987;32.638;-115.438;2023-04-21T05:10:37;34.95;;;12.15;;
61104;SDS011;46987;32.638;-115.438;2023-04-21T05:13:04;30.55;;;10.30;;
61104;SDS011;46987;32.638;-115.438;2023-04-21T05:15:31;24.77;;;9.98;;
61104;SDS011;46987;32.638;-115.438;2023-04-21T05:17:58;40.47;;;11.32;;
61104;SDS011;46987;32.638;-115.438;2023-04-21T05:20:25;32.65;;;10.15;;
61104;SDS011;46987;32.638;-115.438;2023-04-21T05:22:53;27.10;;;9.48;;
61104;SDS011;46987;32.638;-115.438;2023-04-21T05:25:20;32.75;;;10.45;;
61104;SDS011;46987;32.638;-115.438;2023-04-21T05:27:46;35.65;;;11.18;;
61104;SDS011;46987;32.638;-115.438;2023-04-21T05:30:13;33.80;;;11.02;;
61104;SDS011;46987;32.638;-115.438;2023-04-21T05:32:40;42.25;;;11.35;;
61104;SDS011;46987;32.638;-115.438;2023-04-21T05:35:07;35.85;;;11.55;;
61104;SDS011;46987;32.638;-115.438;2023-04-21T05:37:33;39.95;;;11.90;;
61104;SDS011;46987;32.638;-115.438;2023-04-21T05:40:02;39.20;;;12.50;;
61104;SDS011;46987;32.638;-115.438;2023-04-21T05:42:28;42.00;;;12.25;;
61104;SDS011;46987;32.638;-115.438;2023-04-21T05:44:55;39.63;;;12.90;;
61104;SDS011;46987;32.638;-115.438;2023-04-21T05:47:23;37.20;;;13.02;;
61104;SDS011;46987;32.638;-115.438;2023-04-21T05:49:50;38.50;;;13.57;;
61104;SDS011;46987;32.638;-115.438;2023-04-21T05:52:18;33.80;;;12.15;;
61104;SDS011;46987;32.638;-115.438;2023-04-21T05:54:46;38.90;;;14.00;;
61104;SDS011;46987;32.638;-115.438;2023-04-21T05:57:14;50.65;;;14.88;;
61104;SDS011;46987;32.638;-115.438;2023-04-21T05:59:42;43.63;;;14.73;;
61104;SDS011;46987;32.638;-115.438;2023-04-21T06:02:09;48.45;;;15.07;;
61104;SDS011;46987;32.638;-115.438;2023-04-21T06:04:36;44.00;;;16.58;;
61104;SDS011;46987;32.638;-115.438;2023-04-21T06:07:06;46.15;;;16.00;;
61104;SDS011;46987;32.638;-115.438;2023-04-21T06:09:33;44.80;;;16.23;;
61104;SDS011;46987;32.638;-115.438;2023-04-21T06:12:00;51.55;;;18.17;;
61104;SDS011;46987;32.638;-115.438;2023-04-21T06:14:29;55.80;;;18.63;;
61104;SDS011;46987;32.638;-115.438;2023-04-21T06:16:55;52.45;;;17.65;;
61104;SDS011;46987;32.638;-115.438;2023-04-21T06:19:22;55.17;;;18.33;;
61104;SDS011;46987;32.638;-115.438;2023-04-21T06:21:49;47.85;;;18.15;;
61104;SDS011;46987;32.638;-115.438;2023-04-21T06:24:16;52.58;;;18.50;;
61104;SDS011;46987;32.638;-115.438;2023-04-21T06:26:50;53.58;;;18.35;;
61104;SDS011;46987;32.638;-115.438;2023-04-21T06:29:17;52.30;;;19.58;;
61104;SDS011;46987;32.638;-115.438;2023-04-21T06:31:46;42.63;;;17.13;;
61104;SDS011;46987;32.638;-115.438;2023-04-21T06:34:13;49.13;;;18.02;;
61104;SDS011;46987;32.638;-115.438;2023-04-21T06:36:39;50.13;;;17.73;;
61104;SDS011;46987;32.638;-115.438;2023-04-21T06:39:06;43.20;;;16.35;;
61104;SDS011;46987;32.638;-115.438;2023-04-21T06:41:33;64.43;;;19.10;;
61104;SDS011;46987;32.638;-115.438;2023-04-21T06:43:59;55.13;;;20.25;;
61104;SDS011;46987;32.638;-115.438;2023-04-21T06:46:26;50.53;;;19.10;;
61104;SDS011;46987;32.638;-115.438;2023-04-21T06:48:54;45.42;;;20.30;;
61104;SDS011;46987;32.638;-115.438;2023-04-21T06:51:21;51.28;;;22.00;;
61104;SDS011;46987;32.638;-115.438;2023-04-21T06:53:48;52.00;;;21.02;;
61104;SDS011;46987;32.638;-115.438;2023-04-21T06:56:15;54.92;;;21.05;;
61104;SDS011;46987;32.638;-115.438;2023-04-21T06:58:41;53.40;;;22.27;;
61104;SDS011;46987;32.638;-115.438;2023-04-21T07:01:08;54.63;;;22.08;;
61104;SDS011;46987;32.638;-115.438;2023-04-21T07:03:35;55.42;;;22.42;;
61104;SDS011;46987;32.638;-115.438;2023-04-21T07:06:03;54.47;;;21.20;;
61104;SDS011;46987;32.638;-115.438;2023-04-21T07:08:30;54.40;;;21.30;;
61104;SDS011;46987;32.638;-115.438;2023-04-21T07:10:56;60.05;;;21.85;;
61104;SDS011;46987;32.638;-115.438;2023-04-21T07:13:23;54.72;;;21.55;;
61104;SDS011;46987;32.638;-115.438;2023-04-21T07:15:50;50.30;;;20.48;;
61104;SDS011;46987;32.638;-115.438;2023-04-21T07:18:16;63.10;;;22.55;;
61104;SDS011;46987;32.638;-115.438;2023-04-21T07:20:43;52.33;;;20.33;;
61104;SDS011;46987;32.638;-115.438;2023-04-21T07:23:11;48.40;;;21.10;;
61104;SDS011;46987;32.638;-115.438;2023-04-21T07:25:38;49.58;;;20.60;;
61104;SDS011;46987;32.638;-115.438;2023-04-21T07:28:05;55.08;;;21.85;;
61104;SDS011;46987;32.638;-115.438;2023-04-21T07:30:32;48.30;;;19.42;;
61104;SDS011;46987;32.638;-115.438;2023-04-21T07:32:58;49.58;;;20.38;;
61104;SDS011;46987;32.638;-115.438;2023-04-21T07:35:25;57.17;;;21.77;;
61104;SDS011;46987;32.638;-115.438;2023-04-21T07:37:52;51.42;;;21.52;;
61104;SDS011;46987;32.638;-115.438;2023-04-21T07:40:21;51.53;;;21.05;;
61104;SDS011;46987;32.638;-115.438;2023-04-21T07:42:47;49.08;;;20.42;;
61104;SDS011;46987;32.638;-115.438;2023-04-21T07:45:14;49.95;;;19.65;;
61104;SDS011;46987;32.638;-115.438;2023-04-21T07:47:41;48.17;;;18.83;;
61104;SDS011;46987;32.638;-115.438;2023-04-21T07:50:08;52.40;;;19.90;;
61104;SDS011;46987;32.638;-115.438;2023-04-21T07:52:35;51.85;;;19.42;;
61104;SDS011;46987;32.638;-115.438;2023-04-21T07:55:02;47.88;;;18.77;;
61104;SDS011;46987;32.638;-115.438;2023-04-21T07:57:30;50.97;;;19.60;;
61104;SDS011;46987;32.638;-115.438;2023-04-21T07:59:59;48.40;;;18.23;;
61104;SDS011;46987;32.638;-115.438;2023-04-21T08:02:26;50.13;;;18.33;;
61104;SDS011;46987;32.638;-115.438;2023-04-21T08:04:52;44.50;;;19.30;;
61104;SDS011;46987;32.638;-115.438;2023-04-21T08:07:19;52.17;;;19.77;;
61104;SDS011;46987;32.638;-115.438;2023-04-21T08:09:46;41.15;;;17.85;;
61104;SDS011;46987;32.638;-115.438;2023-04-21T08:12:12;45.58;;;17.25;;
61104;SDS011;46987;32.638;-115.438;2023-04-21T08:14:40;43.78;;;14.82;;
61104;SDS011;46987;32.638;-115.438;2023-04-21T08:17:07;42.17;;;14.15;;
61104;SDS011;46987;32.638;-115.438;2023-04-21T08:19:34;56.95;;;13.73;;
61104;SDS011;46987;32.638;-115.438;2023-04-21T08:22:00;108.63;;;17.40;;
61104;SDS011;46987;32.638;-115.438;2023-04-21T08:24:27;113.13;;;16.38;;
61104;SDS011;46987;32.638;-115.438;2023-04-21T08:26:59;76.85;;;14.77;;
61104;SDS011;46987;32.638;-115.438;2023-04-21T08:29:27;78.68;;;15.18;;
61104;SDS011;46987;32.638;-115.438;2023-04-21T08:31:55;89.75;;;15.70;;
61104;SDS011;46987;32.638;-115.438;2023-04-21T08:34:22;102.53;;;15.13;;
61104;SDS011;46987;32.638;-115.438;2023-04-21T08:36:48;98.00;;;14.60;;
61104;SDS011;46987;32.638;-115.438;2023-04-21T08:39:15;96.72;;;13.00;;
61104;SDS011;46987;32.638;-115.438;2023-04-21T08:41:42;58.38;;;11.00;;
61104;SDS011;46987;32.638;-115.438;2023-04-21T08:44:09;60.03;;;12.00;;
61104;SDS011;46987;32.638;-115.438;2023-04-21T08:46:36;48.75;;;10.65;;
61104;SDS011;46987;32.638;-115.438;2023-04-21T08:49:05;48.13;;;10.23;;
61104;SDS011;46987;32.638;-115.438;2023-04-21T08:51:32;38.63;;;8.77;;
61104;SDS011;46987;32.638;-115.438;2023-04-21T08:53:59;34.17;;;8.32;;
61104;SDS011;46987;32.638;-115.438;2023-04-21T08:56:26;47.08;;;10.43;;
61104;SDS011;46987;32.638;-115.438;2023-04-21T08:58:53;43.15;;;10.02;;
61104;SDS011;46987;32.638;-115.438;2023-04-21T09:01:19;34.15;;;8.32;;
61104;SDS011;46987;32.638;-115.438;2023-04-21T09:03:46;41.65;;;9.27;;
61104;SDS011;46987;32.638;-115.438;2023-04-21T09:06:14;31.13;;;7.45;;
61104;SDS011;46987;32.638;-115.438;2023-04-21T09:08:41;33.13;;;8.43;;
61104;SDS011;46987;32.638;-115.438;2023-04-21T09:11:09;31.10;;;8.32;;
61104;SDS011;46987;32.638;-115.438;2023-04-21T09:13:38;27.30;;;8.65;;
61104;SDS011;46987;32.638;-115.438;2023-04-21T09:16:14;30.33;;;9.13;;
61104;SDS011;46987;32.638;-115.438;2023-04-21T09:18:43;21.58;;;8.00;;
61104;SDS011;46987;32.638;-115.438;2023-04-21T09:21:10;26.17;;;8.23;;
61104;SDS011;46987;32.638;-115.438;2023-04-21T09:23:42;24.20;;;8.73;;
61104;SDS011;46987;32.638;-115.438;2023-04-21T09:26:09;25.73;;;8.30;;
61104;SDS011;46987;32.638;-115.438;2023-04-21T09:28:37;24.40;;;8.20;;
61104;SDS011;46987;32.638;-115.438;2023-04-21T09:31:05;24.75;;;8.05;;
61104;SDS011;46987;32.638;-115.438;2023-04-21T09:33:38;25.88;;;9.55;;
61104;SDS011;46987;32.638;-115.438;2023-04-21T09:36:05;25.15;;;10.50;;
61104;SDS011;46987;32.638;-115.438;2023-04-21T09:38:31;24.90;;;10.25;;
61104;SDS011;46987;32.638;-115.438;2023-04-21T09:41:00;26.48;;;7.90;;
61104;SDS011;46987;32.638;-115.438;2023-04-21T09:43:27;29.15;;;7.40;;
61104;SDS011;46987;32.638;-115.438;2023-04-21T09:45:54;22.83;;;6.35;;
61104;SDS011;46987;32.638;-115.438;2023-04-21T09:48:21;21.42;;;6.75;;
61104;SDS011;46987;32.638;-115.438;2023-04-21T09:50:50;19.25;;;6.13;;
61104;SDS011;46987;32.638;-115.438;2023-04-21T09:53:19;23.45;;;6.75;;
61104;SDS011;46987;32.638;-115.438;2023-04-21T09:55:47;16.88;;;5.20;;
61104;SDS011;46987;32.638;-115.438;2023-04-21T09:58:18;19.48;;;6.07;;
61104;SDS011;46987;32.638;-115.438;2023-04-21T10:00:45;19.70;;;5.20;;
61104;SDS011;46987;32.638;-115.438;2023-04-21T10:03:12;16.83;;;5.38;;
61104;SDS011;46987;32.638;-115.438;2023-04-21T10:05:39;16.30;;;6.07;;
61104;SDS011;46987;32.638;-115.438;2023-04-21T10:08:06;14.25;;;4.45;;
61104;SDS011;46987;32.638;-115.438;2023-04-21T10:10:36;14.90;;;4.65;;
61104;SDS011;46987;32.638;-115.438;2023-04-21T10:13:02;15.02;;;4.05;;
61104;SDS011;46987;32.638;-115.438;2023-04-21T10:15:31;15.25;;;3.63;;
61104;SDS011;46987;32.638;-115.438;2023-04-21T10:18:11;13.23;;;3.15;;
61104;SDS011;46987;32.638;-115.438;2023-04-21T10:20:52;16.38;;;3.65;;
61104;SDS011;46987;32.638;-115.438;2023-04-21T10:23:26;9.30;;;2.67;;
61104;SDS011;46987;32.638;-115.438;2023-04-21T10:25:53;13.48;;;3.63;;
61104;SDS011;46987;32.638;-115.438;2023-04-21T10:28:20;12.80;;;3.00;;
61104;SDS011;46987;32.638;-115.438;2023-04-21T10:31:17;11.25;;;3.90;;
61104;SDS011;46987;32.638;-115.438;2023-04-21T10:36:26;11.85;;;3.60;;
61104;SDS011;46987;32.638;-115.438;2023-04-21T10:38:54;12.00;;;3.10;;
61104;SDS011;46987;32.638;-115.438;2023-04-21T10:41:27;9.98;;;2.83;;
61104;SDS011;46987;32.638;-115.438;2023-04-21T10:43:56;10.32;;;2.95;;
61104;SDS011;46987;32.638;-115.438;2023-04-21T10:46:34;12.23;;;3.67;;
61104;SDS011;46987;32.638;-115.438;2023-04-21T10:49:05;14.88;;;3.50;;
61104;SDS011;46987;32.638;-115.438;2023-04-21T10:51:32;9.43;;;3.67;;
61104;SDS011;46987;32.638;-115.438;2023-04-21T10:53:59;13.25;;;3.45;;
61104;SDS011;46987;32.638;-115.438;2023-04-21T10:56:27;10.30;;;2.83;;
61104;SDS011;46987;32.638;-115.438;2023-04-21T10:58:54;16.48;;;3.45;;
61104;SDS011;46987;32.638;-115.438;2023-04-21T11:01:21;10.70;;;2.97;;
61104;SDS011;46987;32.638;-115.438;2023-04-21T11:03:49;12.63;;;2.92;;
61104;SDS011;46987;32.638;-115.438;2023-04-21T11:06:16;11.68;;;3.33;;
61104;SDS011;46987;32.638;-115.438;2023-04-21T11:08:55;9.73;;;3.58;;
61104;SDS011;46987;32.638;-115.438;2023-04-21T11:11:22;9.20;;;2.78;;
61104;SDS011;46987;32.638;-115.438;2023-04-21T11:13:51;11.80;;;3.20;;
61104;SDS011;46987;32.638;-115.438;2023-04-21T11:16:18;14.13;;;2.88;;
61104;SDS011;46987;32.638;-115.438;2023-04-21T11:18:45;10.60;;;3.53;;
61104;SDS011;46987;32.638;-115.438;2023-04-21T11:21:14;10.25;;;3.33;;
61104;SDS011;46987;32.638;-115.438;2023-04-21T11:23:50;8.07;;;3.28;;
61104;SDS011;46987;32.638;-115.438;2023-04-21T11:26:17;14.82;;;4.07;;
61104;SDS011;46987;32.638;-115.438;2023-04-21T11:28:46;12.32;;;3.78;;
61104;SDS011;46987;32.638;-115.438;2023-04-21T11:31:14;14.05;;;3.55;;
61104;SDS011;46987;32.638;-115.438;2023-04-21T11:33:41;15.60;;;5.47;;
61104;SDS011;46987;32.638;-115.438;2023-04-21T11:36:08;14.32;;;4.95;;
61104;SDS011;46987;32.638;-115.438;2023-04-21T11:38:40;15.07;;;5.03;;
61104;SDS011;46987;32.638;-115.438;2023-04-21T11:41:07;14.52;;;4.95;;
61104;SDS011;46987;32.638;-115.438;2023-04-21T11:43:37;10.20;;;4.07;;
61104;SDS011;46987;32.638;-115.438;2023-04-21T11:46:10;11.30;;;4.25;;
61104;SDS011;46987;32.638;-115.438;2023-04-21T11:48:37;16.15;;;4.72;;
61104;SDS011;46987;32.638;-115.438;2023-04-21T11:51:03;12.05;;;4.10;;
61104;SDS011;46987;32.638;-115.438;2023-04-21T11:53:30;11.90;;;3.63;;
61104;SDS011;46987;32.638;-115.438;2023-04-21T11:55:59;9.45;;;3.70;;
61104;SDS011;46987;32.638;-115.438;2023-04-21T11:58:26;9.43;;;3.83;;
61104;SDS011;46987;32.638;-115.438;2023-04-21T12:00:53;15.52;;;4.45;;
61104;SDS011;46987;32.638;-115.438;2023-04-21T12:03:20;13.30;;;3.92;;
61104;SDS011;46987;32.638;-115.438;2023-04-21T12:05:46;13.65;;;4.05;;
61104;SDS011;46987;32.638;-115.438;2023-04-21T12:08:13;10.18;;;3.60;;
61104;SDS011;46987;32.638;-115.438;2023-04-21T12:10:43;12.68;;;4.10;;
61104;SDS011;46987;32.638;-115.438;2023-04-21T12:13:12;9.20;;;3.85;;
61104;SDS011;46987;32.638;-115.438;2023-04-21T12:15:38;14.25;;;3.70;;
61104;SDS011;46987;32.638;-115.438;2023-04-21T12:18:11;19.50;;;4.00;;
61104;SDS011;46987;32.638;-115.438;2023-04-21T12:20:38;12.10;;;3.92;;
61104;SDS011;46987;32.638;-115.438;2023-04-21T12:23:13;17.35;;;4.43;;
61104;SDS011;46987;32.638;-115.438;2023-04-21T12:25:40;13.50;;;4.28;;
61104;SDS011;46987;32.638;-115.438;2023-04-21T12:28:07;13.02;;;3.67;;
61104;SDS011;46987;32.638;-115.438;2023-04-21T12:30:36;14.82;;;4.30;;
61104;SDS011;46987;32.638;-115.438;2023-04-21T12:33:02;11.93;;;3.70;;
61104;SDS011;46987;32.638;-115.438;2023-04-21T12:35:29;15.32;;;4.35;;
61104;SDS011;46987;32.638;-115.438;2023-04-21T12:37:58;11.10;;;4.22;;
61104;SDS011;46987;32.638;-115.438;2023-04-21T12:40:25;17.00;;;4.80;;
61104;SDS011;46987;32.638;-115.438;2023-04-21T12:42:52;13.55;;;6.18;;
61104;SDS011;46987;32.638;-115.438;2023-04-21T12:45:18;18.80;;;4.95;;
61104;SDS011;46987;32.638;-115.438;2023-04-21T12:47:47;12.15;;;5.00;;
61104;SDS011;46987;32.638;-115.438;2023-04-21T12:50:14;14.23;;;5.22;;
61104;SDS011;46987;32.638;-115.438;2023-04-21T12:52:41;17.33;;;5.60;;
61104;SDS011;46987;32.638;-115.438;2023-04-21T12:55:08;18.00;;;4.72;;
61104;SDS011;46987;32.638;-115.438;2023-04-21T12:57:34;20.90;;;5.20;;
61104;SDS011;46987;32.638;-115.438;2023-04-21T13:00:01;18.55;;;5.35;;
61104;SDS011;46987;32.638;-115.438;2023-04-21T13:02:29;13.45;;;4.78;;
61104;SDS011;46987;32.638;-115.438;2023-04-21T13:05:03;14.45;;;5.25;;
61104;SDS011;46987;32.638;-115.438;2023-04-21T13:07:31;17.65;;;4.50;;
61104;SDS011;46987;32.638;-115.438;2023-04-21T13:09:58;17.88;;;4.97;;
61104;SDS011;46987;32.638;-115.438;2023-04-21T13:12:25;19.65;;;6.10;;
61104;SDS011;46987;32.638;-115.438;2023-04-21T13:14:52;16.13;;;4.68;;
61104;SDS011;46987;32.638;-115.438;2023-04-21T13:17:18;13.15;;;4.28;;
61104;SDS011;46987;32.638;-115.438;2023-04-21T13:19:45;18.65;;;5.20;;
61104;SDS011;46987;32.638;-115.438;2023-04-21T13:22:14;18.60;;;5.43;;
61104;SDS011;46987;32.638;-115.438;2023-04-21T13:24:41;15.25;;;5.32;;
61104;SDS011;46987;32.638;-115.438;2023-04-21T13:27:08;18.25;;;4.95;;
61104;SDS011;46987;32.638;-115.438;2023-04-21T13:29:35;15.35;;;5.03;;
61104;SDS011;46987;32.638;-115.438;2023-04-21T13:32:02;15.38;;;5.47;;
61104;SDS011;46987;32.638;-115.438;2023-04-21T13:34:29;15.25;;;4.22;;
61104;SDS011;46987;32.638;-115.438;2023-04-21T13:36:56;19.33;;;5.18;;
61104;SDS011;46987;32.638;-115.438;2023-04-21T13:39:24;16.27;;;4.55;;
61104;SDS011;46987;32.638;-115.438;2023-04-21T13:41:51;18.98;;;5.10;;
61104;SDS011;46987;32.638;-115.438;2023-04-21T13:44:18;13.48;;;4.18;;
61104;SDS011;46987;32.638;-115.438;2023-04-21T13:46:46;21.63;;;4.70;;
61104;SDS011;46987;32.638;-115.438;2023-04-21T13:49:13;13.38;;;5.00;;
61104;SDS011;46987;32.638;-115.438;2023-04-21T13:51:39;16.40;;;5.85;;
61104;SDS011;46987;32.638;-115.438;2023-04-21T13:54:07;16.25;;;6.28;;
61104;SDS011;46987;32.638;-115.438;2023-04-21T13:56:35;18.95;;;5.93;;
61104;SDS011;46987;32.638;-115.438;2023-04-21T13:59:02;20.38;;;7.30;;